Time;durP1;ratioP1;P1;durP2;ratioP2;P2;SDS_P1;SDS_P2;PMS_P1;PMS_P2;Temp;Humidity;BMP_temperature;BMP_pressure;BME280_temperature;BME280_humidity;BME280_pressure;Samples;Min_cycle;Max_cycle;Signal;HPM_P1;HPM_P2
2022/05/28 00:03:42;;;;;;;3.78;1.00;;;22.20;51.50;;;;;;5059243;28;19923;-78
2022/05/28 00:06:29;;;;;;;3.08;1.17;;;22.10;52.30;;;;;;5056294;28;20112;-73
2022/05/28 00:08:56;;;;;;;2.83;1.23;;;22.10;52.60;;;;;;5072545;28;20101;-77
2022/05/28 00:11:26;;;;;;;3.13;1.00;;;22.00;52.90;;;;;;5056218;28;20051;-78
2022/05/28 00:13:53;;;;;;;3.13;1.10;;;21.90;53.40;;;;;;5056144;28;20033;-73
2022/05/28 00:16:20;;;;;;;4.72;1.15;;;21.90;53.70;;;;;;5039114;28;20493;-76
2022/05/28 00:18:46;;;;;;;6.63;1.05;;;21.80;53.70;;;;;;5039232;28;20498;-78
2022/05/28 00:21:16;;;;;;;6.90;1.10;;;21.80;54.00;;;;;;5055783;28;20479;-77
2022/05/28 00:26:28;;;;;;;2.03;0.83;;;21.60;54.40;;;;;;5058293;28;20035;-77
2022/05/28 00:28:54;;;;;;;3.65;1.25;;;21.60;54.70;;;;;;5055944;28;20481;-73
2022/05/28 00:31:20;;;;;;;;;;;21.60;54.60;;;;;;5056032;28;20025;-73
2022/05/28 00:33:47;;;;;;;2.53;0.98;;;21.50;53.40;;;;;;5073664;28;20373;-74
2022/05/28 00:36:14;;;;;;;2.90;1.00;;;21.50;53.90;;;;;;5038672;28;20043;-77
2022/05/28 00:38:44;;;;;;;2.63;0.95;;;21.50;54.50;;;;;;5055790;28;20056;-73
2022/05/28 00:41:12;;;;;;;3.85;0.98;;;21.60;54.70;;;;;;5054580;28;20040;-73
2022/05/28 00:43:43;;;;;;;5.57;1.10;;;21.50;54.60;;;;;;5055710;28;20040;-76
2022/05/28 00:46:28;;;;;;;4.63;1.00;;;21.50;54.40;;;;;;5037729;28;20044;-77
2022/05/28 00:48:59;;;;;;;4.03;1.15;;;21.40;54.30;;;;;;5055334;28;20028;-71
2022/05/28 00:51:46;;;;;;;4.05;1.20;;;21.30;54.20;;;;;;5055343;28;20482;-77
2022/05/28 00:54:13;;;;;;;4.00;1.23;;;21.30;54.10;;;;;;5054809;28;20115;-71
2022/05/28 00:56:39;;;;;;;3.85;1.27;;;21.20;53.60;;;;;;5038181;28;20033;-76
2022/05/28 00:59:08;;;;;;;4.80;1.23;;;21.10;53.80;;;;;;5073427;28;20453;-72
2022/05/28 01:01:38;;;;;;;5.28;1.25;;;21.10;54.20;;;;;;5038211;28;20037;-72
2022/05/28 01:04:31;;;;;;;4.00;0.82;;;21.20;54.10;;;;;;5038532;28;20119;-72
2022/05/28 01:07:37;;;;;;;4.03;1.17;;;21.10;54.20;;;;;;5054428;28;20124;-72
2022/05/28 01:10:30;;;;;;;3.92;1.10;;;21.10;54.20;;;;;;5072555;28;20036;-77
2022/05/28 01:13:28;;;;;;;4.28;1.08;;;21.10;54.30;;;;;;5072911;28;20041;-76
2022/05/28 01:16:25;;;;;;;3.97;0.98;;;21.10;54.40;;;;;;5054566;28;20485;-73
2022/05/28 01:19:01;;;;;;;4.18;1.20;;;21.00;54.50;;;;;;5054974;28;20024;-78
2022/05/28 01:22:12;;;;;;;4.30;1.05;;;21.00;54.80;;;;;;5054805;28;20043;-77
2022/05/28 01:25:18;;;;;;;3.85;0.95;;;21.00;54.80;;;;;;5054038;28;20387;-77
2022/05/28 01:27:50;;;;;;;6.50;1.20;;;20.90;55.50;;;;;;5025515;28;20076;-78
2022/05/28 01:30:18;;;;;;;12.88;1.05;;;20.80;56.70;;;;;;5034802;28;20033;-77
2022/05/28 01:33:07;;;;;;;4.43;1.23;;;20.70;57.30;;;;;;5034858;28;20044;-78
2022/05/28 01:35:34;;;;;;;3.00;1.23;;;20.70;57.20;;;;;;5017963;28;20429;-73
2022/05/28 01:38:01;;;;;;;5.97;1.20;;;20.70;57.90;;;;;;5018247;28;20371;-73
2022/05/28 01:40:28;;;;;;;2.85;1.15;;;20.60;58.00;;;;;;5030219;28;20045;-78
2022/05/28 01:42:59;;;;;;;4.57;1.40;;;20.60;58.10;;;;;;5014994;28;20060;-79
2022/05/28 01:45:28;;;;;;;3.55;0.95;;;20.60;58.20;;;;;;5014519;28;20045;-73
2022/05/28 01:47:59;;;;;;;7.50;1.33;;;20.50;58.50;;;;;;5014893;28;20032;-77
2022/05/28 01:50:27;;;;;;;4.47;1.35;;;20.50;58.60;;;;;;5014690;28;20156;-72
2022/05/28 01:52:54;;;;;;;5.50;1.20;;;20.50;58.70;;;;;;5014981;28;20039;-78
2022/05/28 01:55:23;;;;;;;3.70;1.38;;;20.40;58.60;;;;;;5020189;28;20052;-73
2022/05/28 01:57:50;;;;;;;2.92;0.93;;;20.40;58.70;;;;;;5034651;28;20116;-72
2022/05/28 02:00:17;;;;;;;2.60;0.98;;;20.40;58.60;;;;;;5034497;28;20033;-77
2022/05/28 02:02:43;;;;;;;3.50;1.20;;;20.40;58.60;;;;;;5034597;28;20059;-78
2022/05/28 02:05:10;;;;;;;4.05;1.10;;;20.30;58.30;;;;;;5034420;28;20478;-72
2022/05/28 02:07:37;;;;;;;3.13;1.23;;;20.30;59.10;;;;;;5034563;28;20112;-79
2022/05/28 02:10:23;;;;;;;4.78;1.30;;;20.10;58.80;;;;;;5033783;28;20045;-73
2022/05/28 02:13:30;;;;;;;5.10;1.52;;;20.00;58.40;;;;;;5034533;28;20048;-77
2022/05/28 02:16:07;;;;;;;5.57;1.65;;;20.00;58.50;;;;;;5033852;28;20041;-73
2022/05/28 02:18:57;;;;;;;2.95;1.20;;;19.90;58.50;;;;;;5037159;28;20068;-78
2022/05/28 02:21:44;;;;;;;6.45;1.55;;;19.90;58.50;;;;;;5038150;28;20044;-73
2022/05/28 02:24:22;;;;;;;4.45;1.40;;;19.80;58.40;;;;;;5038558;28;20530;-78
2022/05/28 02:26:59;;;;;;;3.47;1.33;;;19.80;58.40;;;;;;5042175;28;20052;-73
2022/05/28 02:29:25;;;;;;;;;;;19.70;58.60;;;;;;5059108;28;20025;-72
2022/05/28 02:31:51;;;;;;;4.75;1.58;;;19.70;58.00;;;;;;5075963;28;19916;-78
2022/05/28 02:34:19;;;;;;;4.95;1.50;;;19.60;58.30;;;;;;5058318;28;20043;-78
2022/05/28 02:36:45;;;;;;;4.03;1.40;;;19.60;58.10;;;;;;5057709;28;20047;-73
2022/05/28 02:39:12;;;;;;;8.10;1.70;;;19.50;58.00;;;;;;5041456;28;20033;-77
2022/05/28 02:41:39;;;;;;;3.63;1.30;;;19.50;57.90;;;;;;5053465;28;20041;-76
2022/05/28 02:44:05;;;;;;;4.28;1.67;;;19.50;57.90;;;;;;5038045;28;20540;-72
2022/05/28 02:46:32;;;;;;;2.90;1.15;;;19.50;57.80;;;;;;5021112;28;20446;-77
2022/05/28 02:48:59;;;;;;;3.72;1.40;;;19.50;57.60;;;;;;5021258;28;20059;-77
2022/05/28 02:51:25;;;;;;;3.53;1.30;;;19.50;57.50;;;;;;5037769;28;20565;-73
2022/05/28 02:53:53;;;;;;;3.45;1.40;;;19.50;57.30;;;;;;5037823;28;20540;-78
2022/05/28 02:56:21;;;;;;;2.85;1.17;;;19.50;56.70;;;;;;5047017;28;20134;-77
2022/05/28 02:58:47;;;;;;;3.15;1.30;;;19.60;56.50;;;;;;5041017;28;20389;-77
2022/05/28 03:01:33;;;;;;;3.88;1.20;;;19.50;56.20;;;;;;5075174;28;20041;-78
2022/05/28 03:04:00;;;;;;;4.00;1.30;;;19.40;55.70;;;;;;5057681;28;20040;-73
2022/05/28 03:06:27;;;;;;;3.72;1.25;;;19.40;55.50;;;;;;5040483;28;20029;-73
2022/05/28 03:08:53;;;;;;;3.80;1.35;;;19.40;55.60;;;;;;5057267;28;20036;-77
2022/05/28 03:11:20;;;;;;;4.47;1.30;;;19.30;54.90;;;;;;5056338;28;20081;-73
2022/05/28 03:13:47;;;;;;;4.03;1.10;;;19.30;55.30;;;;;;5075349;28;20044;-77
2022/05/28 03:16:14;;;;;;;4.00;1.17;;;19.40;55.00;;;;;;5056991;28;20040;-77
2022/05/28 03:18:40;;;;;;;3.20;1.10;;;19.30;54.90;;;;;;5057330;28;20059;-77
2022/05/28 03:21:07;;;;;;;3.67;1.30;;;19.40;54.80;;;;;;5056971;28;20033;-77
2022/05/28 03:23:36;;;;;;;2.45;1.10;;;19.30;54.10;;;;;;5057280;28;20439;-76
2022/05/28 03:26:42;;;;;;;4.05;1.10;;;19.30;54.50;;;;;;5073889;28;20036;-77
2022/05/28 03:29:08;;;;;;;4.97;1.20;;;19.30;54.30;;;;;;5036715;28;20033;-77
2022/05/28 03:31:34;;;;;;;5.82;1.20;;;19.30;53.90;;;;;;5036709;28;20075;-73
2022/05/28 03:34:00;;;;;;;2.70;1.20;;;19.20;53.80;;;;;;5036984;28;20041;-77
2022/05/28 03:36:28;;;;;;;3.53;1.42;;;19.10;53.30;;;;;;5036633;28;20029;-76
2022/05/28 03:38:54;;;;;;;2.42;0.98;;;19.10;53.50;;;;;;5054831;28;20033;-73
2022/05/28 03:41:20;;;;;;;4.20;1.02;;;19.10;53.70;;;;;;5035883;28;20064;-77
2022/05/28 03:43:47;;;;;;;;;;;19.10;53.70;;;;;;5055407;28;20044;-77
2022/05/28 03:46:34;;;;;;;6.00;1.25;;;19.00;53.80;;;;;;5054345;28;19923;-77
2022/05/28 03:49:04;;;;;;;;;;;19.00;53.70;;;;;;5037428;28;20486;-73
2022/05/28 03:51:30;;;;;;;3.65;1.20;;;18.90;53.70;;;;;;5036470;28;19923;-73
2022/05/28 03:54:12;;;;;;;4.40;1.25;;;18.80;53.80;;;;;;5036585;28;20081;-73
2022/05/28 03:56:41;;;;;;;2.33;1.00;;;18.80;53.70;;;;;;5053256;28;20087;-73
2022/05/28 03:59:08;;;;;;;3.40;1.10;;;18.80;53.80;;;;;;5036724;28;20057;-73
2022/05/28 04:01:36;;;;;;;7.47;1.50;;;18.70;53.80;;;;;;5019457;28;20091;-78
2022/05/28 04:04:05;;;;;;;3.03;1.27;;;18.70;53.90;;;;;;5036437;28;20033;-74
2022/05/28 04:06:34;;;;;;;5.13;1.50;;;18.70;53.80;;;;;;5036085;28;20029;-79
2022/05/28 04:09:00;;;;;;;2.95;1.20;;;18.60;53.70;;;;;;5036295;28;20424;-78
2022/05/28 04:11:26;;;;;;;7.05;1.20;;;18.70;54.10;;;;;;5035216;28;20037;-78
2022/05/28 04:13:53;;;;;;;4.97;1.10;;;18.70;54.00;;;;;;5036387;28;20040;-74
2022/05/28 04:16:20;;;;;;;3.80;1.20;;;18.70;54.20;;;;;;5035817;28;20041;-78
2022/05/28 04:18:46;;;;;;;4.80;1.23;;;18.70;54.90;;;;;;5036169;28;20040;-74
2022/05/28 04:21:12;;;;;;;4.38;1.60;;;18.70;54.10;;;;;;5035861;28;20487;-77
2022/05/28 04:23:38;;;;;;;3.10;1.23;;;18.70;54.20;;;;;;5036057;28;20045;-78
2022/05/28 04:26:04;;;;;;;;;;;18.70;54.40;;;;;;5035524;28;20045;-78
2022/05/28 04:28:31;;;;;;;4.90;1.50;;;18.60;53.80;;;;;;5072844;28;19923;-74
2022/05/28 04:30:57;;;;;;;3.97;1.33;;;18.60;54.40;;;;;;5073678;28;20033;-74
2022/05/28 04:33:24;;;;;;;3.65;1.23;;;18.60;54.50;;;;;;5055678;28;20036;-74
2022/05/28 04:35:50;;;;;;;3.15;1.13;;;18.70;54.10;;;;;;5073281;28;20037;-73
2022/05/28 04:38:16;;;;;;;3.83;1.60;;;18.70;54.80;;;;;;5073663;28;20078;-78
2022/05/28 04:40:42;;;;;;;;;;;18.60;54.60;;;;;;5038587;28;20037;-73
2022/05/28 04:43:08;;;;;;;6.07;1.40;;;18.70;54.30;;;;;;5054550;28;20339;-79
2022/05/28 04:45:34;;;;;;;9.10;1.40;;;18.70;54.80;;;;;;5073087;28;20036;-73
2022/05/28 04:48:00;;;;;;;3.35;1.15;;;18.70;54.60;;;;;;5055629;28;20063;-74
2022/05/28 04:50:29;;;;;;;;;;;18.70;54.60;;;;;;5072358;28;20036;-73
2022/05/28 04:52:56;;;;;;;5.85;1.40;;;18.80;53.50;;;;;;5039375;28;19920;-74
2022/05/28 04:55:24;;;;;;;;;;;18.80;54.30;;;;;;5073818;28;20029;-74
2022/05/28 04:57:53;;;;;;;4.80;1.67;;;18.80;54.00;;;;;;5051373;28;19921;-78
2022/05/28 05:00:22;;;;;;;5.10;1.55;;;18.80;54.30;;;;;;5053342;28;20090;-73
2022/05/28 05:02:48;;;;;;;4.63;1.65;;;18.80;54.50;;;;;;5035493;28;20540;-74
2022/05/28 05:05:14;;;;;;;5.40;1.70;;;18.90;54.70;;;;;;5053198;28;20052;-78
2022/05/28 05:07:40;;;;;;;;;;;18.90;54.80;;;;;;5035935;28;20037;-78
2022/05/28 05:10:08;;;;;;;8.23;1.35;;;19.00;54.20;;;;;;5035366;28;20006;-73
2022/05/28 05:12:37;;;;;;;3.53;1.70;;;19.00;54.60;;;;;;5045540;28;20037;-74
2022/05/28 05:15:04;;;;;;;3.45;1.30;;;19.10;54.30;;;;;;5055173;28;20508;-74
2022/05/28 05:17:30;;;;;;;5.57;1.63;;;19.10;54.80;;;;;;5054967;28;20059;-73
2022/05/28 05:19:57;;;;;;;;;;;19.10;55.10;;;;;;5055778;28;20075;-74
2022/05/28 05:22:23;;;;;;;5.37;1.40;;;19.10;54.50;;;;;;5072459;28;19974;-79
2022/05/28 05:24:51;;;;;;;;;;;19.10;55.10;;;;;;5055661;28;20032;-78
2022/05/28 05:27:17;;;;;;;10.98;1.88;;;19.00;54.60;;;;;;5054346;28;19927;-78
2022/05/28 05:29:43;;;;;;;3.78;1.60;;;19.10;55.30;;;;;;5034872;28;20425;-74
2022/05/28 05:32:09;;;;;;;7.93;1.48;;;19.10;55.40;;;;;;5052430;28;20589;-73
2022/05/28 05:34:38;;;;;;;5.30;1.65;;;19.10;55.30;;;;;;5051532;28;20072;-78
2022/05/28 05:37:05;;;;;;;5.50;1.45;;;19.10;55.30;;;;;;5054203;28;20037;-78
2022/05/28 05:39:31;;;;;;;4.13;1.42;;;19.00;55.60;;;;;;5071344;28;20532;-79
2022/05/28 05:41:57;;;;;;;4.30;1.40;;;19.00;55.50;;;;;;5053443;28;20040;-74
2022/05/28 05:44:23;;;;;;;5.25;1.20;;;19.00;55.20;;;;;;5038091;28;20040;-73
2022/05/28 05:46:49;;;;;;;3.35;1.33;;;18.90;54.80;;;;;;5072235;28;20059;-78
2022/05/28 05:49:16;;;;;;;7.68;1.85;;;18.80;53.70;;;;;;5072554;28;20379;-78
2022/05/28 05:51:45;;;;;;;;;;;18.80;53.90;;;;;;5054776;28;20397;-78
2022/05/28 05:54:13;;;;;;;6.10;1.35;;;18.70;53.00;;;;;;5055015;28;20327;-79
2022/05/28 05:56:39;;;;;;;4.53;1.30;;;18.60;52.10;;;;;;5053454;28;20070;-74
2022/05/28 05:59:05;;;;;;;6.95;1.38;;;18.60;51.80;;;;;;5051009;28;20035;-78
2022/05/28 06:01:32;;;;;;;4.93;1.33;;;18.60;51.50;;;;;;5034180;28;20033;-74
2022/05/28 06:03:58;;;;;;;7.90;1.70;;;18.50;51.00;;;;;;5034707;28;20509;-78
2022/05/28 06:06:24;;;;;;;;;;;18.50;51.00;;;;;;5034722;28;20433;-73
2022/05/28 06:08:50;;;;;;;4.75;1.40;;;18.40;50.80;;;;;;5034417;28;20370;-78
2022/05/28 06:11:16;;;;;;;3.83;1.77;;;18.40;51.00;;;;;;5050609;28;20033;-74
2022/05/28 06:13:43;;;;;;;6.20;1.75;;;18.30;50.30;;;;;;5035196;28;20485;-74
2022/05/28 06:16:09;;;;;;;10.20;1.90;;;18.40;50.30;;;;;;5071326;28;20383;-78
2022/05/28 06:18:36;;;;;;;10.57;2.33;;;18.30;50.60;;;;;;5053750;28;20040;-73
2022/05/28 06:21:03;;;;;;;10.98;2.55;;;18.30;51.20;;;;;;5053706;28;20402;-78
2022/05/28 06:23:29;;;;;;;5.15;1.52;;;18.30;50.90;;;;;;5054226;28;20509;-73
2022/05/28 06:25:58;;;;;;;5.28;1.52;;;18.30;50.70;;;;;;5071818;28;20512;-74
2022/05/28 06:28:24;;;;;;;4.78;1.35;;;18.30;50.50;;;;;;5031759;28;20065;-78
2022/05/28 06:30:51;;;;;;;4.20;1.55;;;18.40;50.90;;;;;;5014135;28;20030;-73
2022/05/28 06:33:17;;;;;;;;;;;18.50;50.90;;;;;;5015098;28;20313;-77
2022/05/28 06:35:44;;;;;;;10.85;1.90;;;18.50;50.70;;;;;;5014120;28;19962;-78
2022/05/28 06:38:10;;;;;;;9.50;1.80;;;18.50;50.30;;;;;;5030961;28;20042;-78
2022/05/28 06:40:39;;;;;;;4.60;1.45;;;18.50;51.00;;;;;;5030600;28;20025;-79
2022/05/28 06:43:05;;;;;;;5.80;1.65;;;18.60;50.70;;;;;;5040404;28;20045;-74
2022/05/28 06:45:31;;;;;;;6.78;1.40;;;18.60;50.20;;;;;;5016920;28;20036;-73
2022/05/28 06:47:58;;;;;;;5.85;1.48;;;18.70;50.80;;;;;;5017683;28;20033;-77
2022/05/28 06:53:09;;;;;;;4.55;1.45;;;18.80;50.10;;;;;;5036782;28;20087;-78
2022/05/28 06:55:35;;;;;;;;;;;18.70;50.60;;;;;;5017774;28;20482;-79
2022/05/28 06:58:04;;;;;;;12.88;1.63;;;18.70;50.60;;;;;;5050822;28;19912;-77
2022/05/28 07:00:30;;;;;;;21.55;2.53;;;18.60;50.30;;;;;;5033547;28;20116;-73
2022/05/28 07:02:57;;;;;;;4.85;1.40;;;18.60;50.20;;;;;;5034188;28;20083;-74
2022/05/28 07:05:28;;;;;;;7.72;1.60;;;18.60;50.50;;;;;;5037111;28;20414;-74
2022/05/28 07:07:55;;;;;;;21.80;2.05;;;18.50;51.30;;;;;;5037821;28;20113;-77
2022/05/28 07:10:21;;;;;;;4.00;1.67;;;18.50;51.40;;;;;;5037462;28;20040;-78
2022/05/28 07:12:50;;;;;;;3.33;1.23;;;18.50;51.70;;;;;;5020140;28;20047;-77
2022/05/28 07:15:16;;;;;;;4.47;1.75;;;18.50;51.80;;;;;;5037550;28;20047;-77
2022/05/28 07:17:42;;;;;;;5.53;1.40;;;18.50;52.00;;;;;;5037416;28;20521;-77
2022/05/28 07:20:09;;;;;;;;;;;18.40;51.50;;;;;;5055735;28;20041;-73
2022/05/28 07:22:35;;;;;;;;;;;18.40;51.70;;;;;;5038045;28;19916;-78
2022/05/28 07:25:03;;;;;;;5.20;1.92;;;18.40;51.80;;;;;;5037523;28;19940;-73
2022/05/28 07:27:29;;;;;;;7.28;1.67;;;18.30;52.30;;;;;;5046858;28;20045;-74
2022/05/28 07:29:55;;;;;;;;;;;18.30;52.20;;;;;;5075870;28;20037;-73
2022/05/28 07:32:29;;;;;;;7.10;2.28;;;18.20;52.30;;;;;;5056851;28;19916;-73
2022/05/28 07:34:58;;;;;;;9.65;2.53;;;18.20;52.90;;;;;;5057145;28;20068;-78
2022/05/28 07:37:26;;;;;;;15.05;4.72;;;18.10;53.10;;;;;;5074522;28;20069;-76
2022/05/28 07:39:54;;;;;;;6.80;2.25;;;18.10;53.90;;;;;;5056988;28;20041;-76
2022/05/28 07:42:20;;;;;;;9.93;3.28;;;18.10;54.60;;;;;;5056682;28;20420;-73
2022/05/28 07:44:46;;;;;;;21.52;6.97;;;18.00;55.20;;;;;;5074270;28;20041;-79
2022/05/28 07:47:12;;;;;;;7.85;2.80;;;17.90;55.90;;;;;;5056631;28;20040;-79
2022/05/28 07:49:39;;;;;;;10.52;4.75;;;17.90;56.20;;;;;;5056869;28;20032;-74
2022/05/28 07:52:06;;;;;;;11.73;2.95;;;17.80;56.40;;;;;;5056520;28;20060;-73
2022/05/28 07:54:33;;;;;;;8.13;3.13;;;17.80;57.00;;;;;;5056854;28;20481;-78
2022/05/28 07:56:59;;;;;;;7.82;2.60;;;17.80;57.40;;;;;;5056175;28;20040;-74
2022/05/28 07:59:25;;;;;;;7.82;3.42;;;17.80;57.40;;;;;;5073989;28;20055;-74
2022/05/28 08:01:51;;;;;;;;;;;17.80;57.60;;;;;;5056873;28;20040;-77
2022/05/28 08:04:17;;;;;;;6.95;2.83;;;17.80;56.50;;;;;;5039951;28;20062;-76
2022/05/28 08:06:44;;;;;;;6.80;2.88;;;17.80;57.70;;;;;;5039417;28;20432;-77
2022/05/28 08:09:14;;;;;;;13.80;2.58;;;17.60;58.70;;;;;;5056830;28;20111;-78
2022/05/28 08:11:41;;;;;;;12.57;2.78;;;17.50;59.40;;;;;;5056402;28;20033;-78
2022/05/28 08:14:07;;;;;;;6.03;2.70;;;17.40;60.30;;;;;;5055609;28;20041;-77
2022/05/28 08:16:34;;;;;;;7.40;3.63;;;17.30;59.90;;;;;;5072727;28;20051;-71
2022/05/28 08:19:01;;;;;;;7.50;2.40;;;17.30;60.40;;;;;;5056322;28;20052;-76
2022/05/28 08:24:11;;;;;;;9.05;2.90;;;17.20;60.50;;;;;;5074318;28;20560;-76
2022/05/28 08:26:38;;;;;;;5.03;2.25;;;17.20;60.60;;;;;;5052203;28;20053;-73
2022/05/28 08:29:05;;;;;;;6.88;2.55;;;17.20;60.40;;;;;;5031962;28;20065;-76
2022/05/28 08:31:34;;;;;;;11.80;3.10;;;17.10;60.60;;;;;;5016012;28;20041;-76
2022/05/28 08:34:00;;;;;;;6.00;1.98;;;17.20;61.00;;;;;;5034231;28;20036;-76
2022/05/28 08:36:26;;;;;;;4.93;2.30;;;17.20;62.00;;;;;;5015652;28;20128;-76
2022/05/28 08:38:52;;;;;;;;;;;17.20;61.10;;;;;;5016616;28;20457;-75
2022/05/28 08:41:48;;;;;;;8.05;2.40;;;17.10;60.50;;;;;;5015747;28;19924;-75
2022/05/28 08:44:20;;;;;;;8.73;2.20;;;17.00;61.50;;;;;;5025462;28;20386;-73
2022/05/28 08:47:16;;;;;;;9.23;2.28;;;17.00;61.90;;;;;;5018958;28;20295;-77
2022/05/28 08:49:43;;;;;;;6.30;2.72;;;17.00;61.70;;;;;;5053819;28;20033;-77
2022/05/28 08:52:25;;;;;;;24.15;9.27;;;16.90;61.60;;;;;;5035142;28;20029;-74
2022/05/28 08:54:57;;;;;;;11.60;4.07;;;16.90;61.70;;;;;;5035833;28;20072;-74
2022/05/28 08:58:04;;;;;;;12.07;3.20;;;16.90;61.70;;;;;;5018706;28;20069;-74
2022/05/28 09:00:41;;;;;;;12.05;3.33;;;16.80;61.70;;;;;;5030850;28;20053;-78
2022/05/28 09:03:44;;;;;;;9.50;2.80;;;16.80;62.10;;;;;;5015595;28;20065;-77
2022/05/28 09:06:14;;;;;;;7.78;2.50;;;16.80;61.80;;;;;;5033650;28;20037;-78
2022/05/28 09:09:14;;;;;;;9.18;2.45;;;16.80;62.00;;;;;;5015548;28;20364;-74
2022/05/28 09:12:03;;;;;;;8.02;2.20;;;16.70;62.60;;;;;;5032602;28;20192;-73
2022/05/28 09:14:33;;;;;;;9.00;2.50;;;16.70;62.40;;;;;;5024935;28;20080;-74
2022/05/28 09:17:24;;;;;;;7.38;2.75;;;16.80;62.40;;;;;;5052615;28;20037;-78
2022/05/28 09:19:53;;;;;;;7.05;2.65;;;16.80;62.00;;;;;;5053192;28;20540;-78
2022/05/28 09:22:22;;;;;;;10.40;2.83;;;16.80;62.10;;;;;;5034826;28;20501;-74
2022/05/28 09:24:48;;;;;;;8.18;2.63;;;16.80;62.10;;;;;;5035064;28;20033;-77
2022/05/28 09:28:11;;;;;;;9.25;2.45;;;16.80;62.20;;;;;;5039491;28;20441;-74
2022/05/28 09:31:34;;;;;;;9.40;2.42;;;16.90;62.10;;;;;;5051436;28;20102;-75
2022/05/28 09:34:38;;;;;;;8.85;2.75;;;16.90;61.90;;;;;;5052817;28;20040;-77
2022/05/28 09:37:45;;;;;;;5.05;2.30;;;17.00;62.00;;;;;;5052316;28;20128;-77
2022/05/28 09:41:07;;;;;;;5.40;2.20;;;17.00;61.70;;;;;;5034446;28;20524;-78
2022/05/28 09:44:30;;;;;;;8.95;2.72;;;17.00;61.70;;;;;;5052078;28;20037;-73
2022/05/28 09:47:28;;;;;;;6.18;2.08;;;17.00;61.70;;;;;;5054033;28;20051;-74
2022/05/28 09:49:57;;;;;;;7.18;2.17;;;17.00;61.90;;;;;;5054153;28;20068;-74
2022/05/28 09:55:29;;;;;;;7.80;2.72;;;16.90;62.50;;;;;;5072421;28;20060;-74
2022/05/28 09:58:20;;;;;;;10.40;2.33;;;16.90;62.70;;;;;;5054545;28;20032;-73
2022/05/28 10:00:49;;;;;;;5.50;2.10;;;17.00;62.40;;;;;;5049975;28;20036;-76
2022/05/28 10:06:16;;;;;;;10.27;2.75;;;16.90;62.40;;;;;;5036904;28;20163;-76
2022/05/28 10:08:48;;;;;;;8.57;2.08;;;16.90;62.70;;;;;;5052172;28;20028;-74
2022/05/28 10:11:19;;;;;;;10.75;2.53;;;17.00;62.80;;;;;;5034597;28;20055;-73
2022/05/28 10:14:15;;;;;;;8.05;2.92;;;16.90;62.70;;;;;;5052383;28;20029;-72
2022/05/28 10:16:46;;;;;;;6.32;2.20;;;16.90;62.70;;;;;;5033709;28;20084;-76
2022/05/28 10:19:49;;;;;;;7.13;2.50;;;16.80;62.90;;;;;;5035162;28;20037;-76
2022/05/28 10:22:20;;;;;;;6.15;2.42;;;16.80;62.90;;;;;;5034578;28;20048;-73
2022/05/28 10:24:51;;;;;;;10.52;2.95;;;16.80;62.90;;;;;;5034614;28;20064;-73
2022/05/28 10:27:47;;;;;;;6.13;2.85;;;16.80;63.10;;;;;;5033916;28;20045;-74
2022/05/28 10:30:52;;;;;;;5.32;2.47;;;16.80;63.00;;;;;;5044275;28;20483;-76
2022/05/28 10:33:23;;;;;;;8.88;2.50;;;16.80;62.80;;;;;;5037692;28;20032;-76
2022/05/28 10:35:50;;;;;;;6.70;2.60;;;16.80;62.80;;;;;;5053950;28;20036;-73
2022/05/28 10:38:36;;;;;;;6.07;2.30;;;16.90;62.20;;;;;;5054370;28;20029;-73
2022/05/28 10:41:18;;;;;;;5.17;2.43;;;17.00;61.80;;;;;;5057555;28;20052;-73
2022/05/28 10:43:44;;;;;;;5.75;2.47;;;17.00;62.10;;;;;;5057973;28;20115;-74
2022/05/28 10:49:53;;;;;;;6.43;2.35;;;17.10;61.90;;;;;;5056105;28;20285;-74
2022/05/28 10:52:56;;;;;;;6.78;2.38;;;17.00;61.90;;;;;;5055506;28;20045;-74
2022/05/28 10:55:53;;;;;;;6.03;2.05;;;17.10;62.30;;;;;;5037640;28;20037;-73
2022/05/28 10:58:57;;;;;;;;;;;17.10;61.90;;;;;;5038262;28;20772;-74
2022/05/28 11:02:19;;;;;;;6.25;2.40;;;17.10;61.50;;;;;;5073074;28;19920;-76
2022/05/28 11:05:41;;;;;;;5.40;2.55;;;17.10;61.70;;;;;;5075887;28;20041;-77
2022/05/28 11:08:31;;;;;;;6.40;3.20;;;17.10;61.60;;;;;;5075435;28;20767;-75
2022/05/28 11:11:16;;;;;;;12.88;6.00;;;17.10;61.90;;;;;;5057098;28;20047;-73
2022/05/28 11:13:58;;;;;;;13.60;5.43;;;17.00;62.10;;;;;;5075268;28;20556;-73
2022/05/28 11:16:52;;;;;;;7.63;3.05;;;17.00;62.40;;;;;;5052898;28;20033;-73
2022/05/28 11:19:48;;;;;;;7.22;2.45;;;17.00;62.40;;;;;;5037742;28;20112;-75
2022/05/28 11:22:38;;;;;;;8.10;2.22;;;17.00;62.40;;;;;;5037072;28;20033;-74
2022/05/28 11:25:29;;;;;;;10.52;3.65;;;17.00;62.10;;;;;;5037031;28;20043;-74
2022/05/28 11:28:33;;;;;;;6.00;2.50;;;17.10;62.30;;;;;;5036995;28;20414;-76
2022/05/28 11:31:44;;;;;;;6.10;2.25;;;17.20;62.10;;;;;;5066963;28;20478;-76
2022/05/28 11:35:07;;;;;;;7.07;2.75;;;17.20;61.50;;;;;;5075143;28;20085;-74
2022/05/28 11:38:05;;;;;;;4.78;2.10;;;17.30;61.80;;;;;;5057077;28;20528;-74
2022/05/28 11:41:04;;;;;;;6.40;2.05;;;17.30;61.20;;;;;;5074508;28;20555;-74
2022/05/28 11:43:43;;;;;;;7.40;2.80;;;17.30;61.30;;;;;;5074890;28;20434;-76
2022/05/28 11:46:39;;;;;;;8.77;3.85;;;17.40;61.40;;;;;;5052815;28;20521;-74
2022/05/28 11:52:21;;;;;;;12.65;4.93;;;17.30;61.40;;;;;;5054368;28;20099;-76
2022/05/28 11:55:17;;;;;;;9.18;3.08;;;17.30;61.30;;;;;;5053461;28;20072;-74
2022/05/28 11:58:07;;;;;;;6.43;2.50;;;17.30;61.60;;;;;;5054402;28;20116;-77
2022/05/28 12:00:38;;;;;;;7.32;2.05;;;17.30;61.60;;;;;;5060912;28;20040;-77
2022/05/28 12:03:42;;;;;;;5.88;2.05;;;17.30;61.60;;;;;;5056816;28;20028;-74
2022/05/28 12:06:22;;;;;;;5.38;2.35;;;17.30;61.60;;;;;;5074084;28;20453;-76
2022/05/28 12:09:01;;;;;;;4.03;1.83;;;17.40;61.50;;;;;;5039618;28;20094;-76
2022/05/28 12:11:33;;;;;;;4.13;1.95;;;17.40;61.40;;;;;;5056256;28;20116;-74
2022/05/28 12:14:04;;;;;;;4.30;2.00;;;17.40;60.80;;;;;;5056371;28;20139;-73
2022/05/28 12:16:42;;;;;;;6.03;2.03;;;17.40;60.70;;;;;;5055015;28;20404;-74
2022/05/28 12:19:27;;;;;;;9.25;3.03;;;17.50;61.00;;;;;;5056339;28;20025;-73
2022/05/28 12:22:23;;;;;;;5.25;2.03;;;17.50;61.00;;;;;;5055869;28;20058;-74
2022/05/28 12:25:45;;;;;;;6.60;2.47;;;17.60;60.40;;;;;;5056042;28;20401;-76
2022/05/28 12:28:25;;;;;;;5.28;2.25;;;17.50;60.70;;;;;;5039543;28;20131;-76
2022/05/28 12:30:54;;;;;;;7.10;2.38;;;17.50;60.80;;;;;;5031687;28;20037;-73
2022/05/28 12:33:59;;;;;;;6.65;2.38;;;17.60;60.60;;;;;;5016429;28;20386;-73
2022/05/28 12:36:49;;;;;;;9.40;2.67;;;17.70;60.80;;;;;;5033526;28;20030;-77
2022/05/28 12:39:53;;;;;;;6.68;1.60;;;17.80;60.60;;;;;;5034002;28;20130;-73
2022/05/28 12:42:27;;;;;;;6.68;3.20;;;17.90;60.30;;;;;;5033446;28;20080;-77
2022/05/28 12:44:54;;;;;;;3.83;1.80;;;18.10;60.20;;;;;;5016232;28;20045;-78
2022/05/28 12:47:39;;;;;;;6.10;1.83;;;18.20;59.80;;;;;;5033983;28;20039;-78
2022/05/28 12:50:43;;;;;;;4.75;2.40;;;18.30;59.40;;;;;;5019234;28;20029;-78
2022/05/28 12:53:51;;;;;;;7.15;2.35;;;18.30;59.20;;;;;;5035514;28;20033;-77
2022/05/28 12:57:14;;;;;;;5.47;1.92;;;18.40;59.30;;;;;;5053094;28;20060;-74
2022/05/28 13:00:06;;;;;;;3.70;1.67;;;18.30;59.20;;;;;;5053645;28;20039;-74
2022/05/28 13:02:48;;;;;;;6.22;1.95;;;18.10;58.30;;;;;;5034144;28;20393;-78
2022/05/28 13:05:42;;;;;;;3.33;1.65;;;18.00;58.70;;;;;;5019105;28;20075;-74
2022/05/28 13:08:17;;;;;;;3.50;1.70;;;17.90;59.20;;;;;;5035480;28;20044;-77
2022/05/28 13:10:55;;;;;;;6.10;2.03;;;17.90;59.40;;;;;;5035232;28;20068;-77
2022/05/28 13:13:46;;;;;;;9.45;3.88;;;17.80;59.50;;;;;;5035455;28;20033;-77
2022/05/28 13:16:44;;;;;;;6.72;3.33;;;17.80;59.70;;;;;;5034021;28;20518;-74
2022/05/28 13:19:22;;;;;;;4.20;2.13;;;17.80;59.90;;;;;;5053307;28;20028;-77
2022/05/28 13:21:57;;;;;;;6.22;2.00;;;17.80;60.20;;;;;;5051327;28;20494;-74
2022/05/28 13:24:51;;;;;;;5.68;2.17;;;17.70;60.10;;;;;;5053211;28;20060;-76
2022/05/28 13:27:33;;;;;;;7.95;2.85;;;17.60;59.70;;;;;;5061276;28;20048;-77
2022/05/28 13:30:17;;;;;;;12.57;6.32;;;17.60;60.20;;;;;;5038540;28;20067;-74
2022/05/28 13:33:03;;;;;;;14.25;7.60;;;17.50;60.00;;;;;;5053992;28;20132;-74
2022/05/28 13:35:59;;;;;;;8.55;3.08;;;17.50;60.00;;;;;;5054442;28;20087;-77
2022/05/28 13:38:48;;;;;;;8.18;4.45;;;17.40;60.00;;;;;;5054263;28;20466;-77
2022/05/28 13:41:53;;;;;;;11.07;4.85;;;17.30;60.00;;;;;;5054518;28;20024;-78
2022/05/28 13:44:25;;;;;;;10.93;4.03;;;17.10;60.20;;;;;;5054852;28;20367;-76
2022/05/28 13:46:57;;;;;;;7.03;2.75;;;17.00;60.50;;;;;;5071216;28;20120;-76
2022/05/28 13:49:26;;;;;;;13.27;4.15;;;17.00;60.70;;;;;;5038170;28;20405;-74
2022/05/28 13:52:18;;;;;;;28.65;5.75;;;17.00;60.80;;;;;;5072081;28;20429;-74
2022/05/28 13:55:08;;;;;;;9.55;3.03;;;16.90;60.80;;;;;;5072751;28;20362;-77
2022/05/28 13:57:53;;;;;;;5.45;2.58;;;16.90;60.80;;;;;;5054564;28;20093;-77
2022/05/28 14:00:31;;;;;;;6.80;3.35;;;16.90;61.10;;;;;;5037605;28;20032;-74